Time;durP1;ratioP1;P1;durP2;ratioP2;P2;SDS_P1;SDS_P2;PMS_P1;PMS_P2;Temp;Humidity;BMP_temperature;BMP_pressure;BME280_temperature;BME280_humidity;BME280_pressure;Samples;Min_cycle;Max_cycle;Signal;HPM_P1;HPM_P2
2021/10/27 00:01:30;;;;;;;18.40;14.57;;;13.70;99.90;;;;;;5039273;28;20043;-78
2021/10/27 00:03:56;;;;;;;19.67;13.70;;;13.70;99.90;;;;;;5036116;28;20032;-77
2021/10/27 00:06:23;;;;;;;15.98;12.98;;;13.70;99.90;;;;;;5031087;28;20039;-77
2021/10/27 00:08:50;;;;;;;16.20;12.18;;;13.70;99.90;;;;;;5028544;28;20614;-77
2021/10/27 00:11:18;;;;;;;16.33;13.27;;;13.70;99.90;;;;;;5070801;28;20017;-78
2021/10/27 00:13:45;;;;;;;20.42;13.30;;;13.70;99.90;;;;;;5040708;28;20033;-78
2021/10/27 00:16:12;;;;;;;16.63;13.25;;;13.70;99.90;;;;;;5045137;28;20040;-77
2021/10/27 00:18:38;;;;;;;14.73;11.93;;;13.70;99.90;;;;;;5036438;28;20032;-77
2021/10/27 00:21:05;;;;;;;17.05;12.30;;;13.80;99.90;;;;;;5022093;28;20041;-77
2021/10/27 00:23:31;;;;;;;18.35;12.68;;;13.80;99.90;;;;;;5055720;28;20474;-77
2021/10/27 00:25:58;;;;;;;19.25;13.52;;;13.80;99.90;;;;;;5074021;28;20363;-77
2021/10/27 00:28:24;;;;;;;20.27;14.38;;;13.80;99.90;;;;;;5012174;28;20384;-78
2021/10/27 00:30:51;;;;;;;16.90;12.98;;;13.80;99.90;;;;;;5061124;28;20768;-77
2021/10/27 00:33:17;;;;;;;19.13;13.48;;;13.80;99.90;;;;;;5038262;28;20032;-77
2021/10/27 00:35:44;;;;;;;15.10;11.07;;;13.80;99.90;;;;;;5020158;28;20045;-77
2021/10/27 00:38:10;;;;;;;21.27;14.38;;;13.90;99.90;;;;;;5025157;28;20047;-77
2021/10/27 00:40:37;;;;;;;16.17;12.77;;;13.80;99.90;;;;;;5035562;28;20032;-77
2021/10/27 00:43:03;;;;;;;19.85;13.88;;;13.90;99.90;;;;;;5054467;28;20056;-80
2021/10/27 00:45:30;;;;;;;13.23;11.35;;;13.80;99.90;;;;;;5019059;28;20033;-80
2021/10/27 00:47:56;;;;;;;25.80;16.55;;;13.90;99.90;;;;;;5022492;28;20029;-78
2021/10/27 00:50:23;;;;;;;19.73;14.95;;;13.90;99.90;;;;;;5037222;28;20040;-78
2021/10/27 00:52:49;;;;;;;15.43;12.75;;;13.90;99.90;;;;;;5025055;28;20044;-78
2021/10/27 00:55:16;;;;;;;22.23;14.65;;;13.90;99.90;;;;;;5008999;28;20507;-78
2021/10/27 00:57:43;;;;;;;17.20;13.35;;;13.90;99.90;;;;;;5038204;28;20044;-77
2021/10/27 01:00:10;;;;;;;20.92;12.07;;;13.90;99.90;;;;;;5036646;28;20044;-77
2021/10/27 01:02:37;;;;;;;17.10;13.13;;;13.90;99.90;;;;;;5052442;28;20479;-77
2021/10/27 01:05:04;;;;;;;15.13;11.48;;;13.90;99.90;;;;;;5054840;28;20040;-77
2021/10/27 01:07:31;;;;;;;16.05;12.70;;;14.00;99.90;;;;;;5042046;28;20040;-77
2021/10/27 01:09:57;;;;;;;18.63;14.48;;;13.90;99.90;;;;;;5035867;28;20043;-77
2021/10/27 01:12:24;;;;;;;18.83;14.10;;;14.00;99.90;;;;;;5032755;28;20547;-77
2021/10/27 01:14:50;;;;;;;16.98;13.57;;;13.90;99.90;;;;;;5040241;28;20057;-77
2021/10/27 01:17:18;;;;;;;15.95;12.52;;;13.90;99.90;;;;;;5053117;28;20739;-78
2021/10/27 01:19:54;;;;;;;25.15;16.60;;;13.90;99.90;;;;;;5039694;28;21290;-78
2021/10/27 01:22:26;;;;;;;19.55;14.30;;;13.90;99.90;;;;;;5055749;28;20410;-77
2021/10/27 01:24:53;;;;;;;13.80;10.82;;;13.90;99.90;;;;;;5055724;28;20036;-77
2021/10/27 01:27:21;;;;;;;14.75;11.18;;;13.90;99.90;;;;;;5047119;28;20032;-77
2021/10/27 01:29:47;;;;;;;15.85;11.50;;;13.90;99.90;;;;;;5038819;28;20044;-77
2021/10/27 01:32:23;;;;;;;15.32;12.88;;;13.90;99.90;;;;;;5052932;28;20036;-77
2021/10/27 01:34:49;;;;;;;15.95;12.00;;;13.90;99.90;;;;;;5054834;28;20032;-77
2021/10/27 01:37:16;;;;;;;15.30;12.25;;;13.90;99.90;;;;;;5025997;28;20062;-77
2021/10/27 01:39:43;;;;;;;13.80;10.73;;;13.90;99.90;;;;;;5042816;28;20475;-77
2021/10/27 01:42:10;;;;;;;16.08;12.95;;;13.90;99.90;;;;;;5054872;28;20052;-78
2021/10/27 01:44:36;;;;;;;13.90;11.52;;;13.90;99.90;;;;;;5025953;28;20036;-77
2021/10/27 01:47:03;;;;;;;17.75;12.02;;;13.90;99.90;;;;;;5058445;28;20035;-78
2021/10/27 01:49:30;;;;;;;15.55;12.23;;;13.90;99.90;;;;;;5038791;28;20052;-77
2021/10/27 01:51:58;;;;;;;15.60;11.05;;;13.90;99.90;;;;;;5059150;28;20770;-78
2021/10/27 01:54:26;;;;;;;14.88;10.50;;;13.90;99.90;;;;;;5074282;28;20043;-80
2021/10/27 01:56:53;;;;;;;11.65;9.80;;;13.90;99.90;;;;;;5054450;28;20047;-80
2021/10/27 01:59:21;;;;;;;13.98;10.48;;;13.90;99.90;;;;;;5057824;28;20040;-80
2021/10/27 02:01:51;;;;;;;14.40;10.73;;;13.90;99.90;;;;;;5055988;28;20033;-80
2021/10/27 02:04:19;;;;;;;16.60;11.65;;;13.90;99.90;;;;;;5052227;28;20036;-80
2021/10/27 02:06:46;;;;;;;15.93;10.73;;;13.90;99.90;;;;;;5053598;28;20044;-80
2021/10/27 02:09:13;;;;;;;14.80;11.10;;;13.90;99.90;;;;;;5024743;28;20059;-80
2021/10/27 02:11:39;;;;;;;13.25;10.65;;;13.90;99.90;;;;;;5041405;28;20044;-80
2021/10/27 02:14:06;;;;;;;15.00;10.85;;;13.90;99.90;;;;;;5019554;28;20802;-80
2021/10/27 02:16:32;;;;;;;12.05;9.77;;;13.90;99.90;;;;;;5037311;28;20094;-80
2021/10/27 02:18:59;;;;;;;14.73;9.90;;;13.90;99.90;;;;;;5019452;28;20067;-81
2021/10/27 02:21:25;;;;;;;15.15;11.77;;;13.90;99.90;;;;;;5037989;28;20694;-81
2021/10/27 02:23:52;;;;;;;12.35;9.10;;;13.90;99.90;;;;;;5003640;28;20048;-81
2021/10/27 02:26:20;;;;;;;14.93;10.02;;;13.90;99.90;;;;;;5039087;28;20047;-81
2021/10/27 02:28:50;;;;;;;14.32;10.80;;;13.90;99.90;;;;;;5057736;28;20033;-81
2021/10/27 02:31:16;;;;;;;16.20;9.73;;;13.90;99.90;;;;;;5053467;28;20479;-81
2021/10/27 02:33:42;;;;;;;14.75;8.93;;;13.90;99.90;;;;;;5056873;28;20063;-81
2021/10/27 02:36:09;;;;;;;11.93;9.25;;;13.90;99.90;;;;;;5040289;28;20037;-81
2021/10/27 02:38:36;;;;;;;17.45;10.98;;;14.00;99.90;;;;;;5011157;28;20036;-81
2021/10/27 02:41:04;;;;;;;14.00;9.10;;;13.90;99.90;;;;;;5055632;28;20508;-81
2021/10/27 02:43:32;;;;;;;11.65;8.98;;;14.00;99.90;;;;;;5053519;28;20049;-81
2021/10/27 02:46:02;;;;;;;11.35;9.05;;;14.00;99.90;;;;;;5035724;28;20041;-81
2021/10/27 02:48:28;;;;;;;17.35;8.85;;;14.00;99.90;;;;;;5070608;28;20041;-81
2021/10/27 02:50:55;;;;;;;14.52;8.57;;;14.00;99.90;;;;;;5035791;28;20040;-81
2021/10/27 02:53:24;;;;;;;15.20;9.05;;;14.00;99.90;;;;;;5019381;28;20060;-81
2021/10/27 02:55:50;;;;;;;13.70;8.13;;;14.00;99.90;;;;;;5061545;28;20045;-81
2021/10/27 02:58:16;;;;;;;13.68;8.68;;;14.00;99.90;;;;;;5035649;28;20033;-81
2021/10/27 03:00:43;;;;;;;14.18;7.40;;;14.00;99.90;;;;;;5037001;28;20052;-81
2021/10/27 03:03:09;;;;;;;12.93;6.65;;;14.00;99.90;;;;;;5039283;28;20029;-81
2021/10/27 03:05:36;;;;;;;12.18;6.50;;;14.00;99.90;;;;;;5039726;28;20043;-81
2021/10/27 03:08:02;;;;;;;12.52;8.57;;;14.00;99.90;;;;;;5019537;28;20036;-81
2021/10/27 03:10:29;;;;;;;8.57;5.85;;;14.00;99.90;;;;;;5051982;28;20598;-81
2021/10/27 03:12:55;;;;;;;9.65;5.60;;;14.00;99.90;;;;;;5035464;28;20043;-81
2021/10/27 03:15:22;;;;;;;11.20;5.80;;;14.00;99.90;;;;;;5011509;28;20036;-81
2021/10/27 03:17:51;;;;;;;12.27;5.70;;;14.10;99.90;;;;;;5051371;28;20391;-81
2021/10/27 03:20:17;;;;;;;11.95;5.63;;;14.00;99.90;;;;;;5038452;28;20033;-81
2021/10/27 03:22:44;;;;;;;12.95;7.25;;;14.00;99.90;;;;;;5018883;28;20055;-81
2021/10/27 03:25:10;;;;;;;12.80;5.03;;;14.00;99.90;;;;;;5044755;28;20694;-81
2021/10/27 03:27:37;;;;;;;11.50;5.80;;;14.00;99.90;;;;;;5054587;28;20032;-81
2021/10/27 03:30:04;;;;;;;11.77;5.53;;;14.00;99.90;;;;;;5032677;28;20040;-81
2021/10/27 03:32:32;;;;;;;11.43;5.50;;;14.00;99.90;;;;;;5036849;28;20037;-81
2021/10/27 03:34:58;;;;;;;9.40;4.80;;;14.00;99.90;;;;;;5057767;28;20585;-80
2021/10/27 03:37:24;;;;;;;12.68;4.80;;;14.00;99.90;;;;;;5034018;28;20502;-80
2021/10/27 03:39:51;;;;;;;12.48;4.68;;;13.90;99.90;;;;;;5046898;28;20051;-80
2021/10/27 03:42:18;;;;;;;10.23;4.05;;;13.90;99.90;;;;;;5068583;28;20498;-80
2021/10/27 03:44:44;;;;;;;9.25;4.13;;;13.90;99.90;;;;;;5035126;28;20398;-80
2021/10/27 03:47:11;;;;;;;9.07;3.78;;;13.90;99.90;;;;;;5060505;28;20032;-80
2021/10/27 03:52:42;;;;;;;10.57;4.20;;;13.90;99.90;;;;;;5109070;23;20368;-89
2021/10/27 03:55:09;;;;;;;15.23;4.22;;;14.00;99.90;;;;;;4841863;29;20052;-89
2021/10/27 03:57:35;;;;;;;10.10;3.58;;;13.90;99.90;;;;;;4862122;29;20052;-88
2021/10/27 04:00:05;;;;;;;8.88;3.90;;;14.00;99.90;;;;;;4821453;29;20057;-88
2021/10/27 04:02:40;;;;;;;8.82;3.80;;;14.00;99.90;;;;;;4865885;29;20041;-88
2021/10/27 04:05:07;;;;;;;8.07;3.03;;;14.00;99.90;;;;;;4833031;29;21153;-87
2021/10/27 04:07:36;;;;;;;8.25;3.08;;;14.00;99.90;;;;;;4863380;29;20036;-87
2021/10/27 04:10:08;;;;;;;9.00;3.00;;;14.00;99.90;;;;;;4850453;29;20048;-86
2021/10/27 04:12:36;;;;;;;9.13;2.50;;;14.00;99.90;;;;;;4850358;29;20045;-87
2021/10/27 04:15:05;;;;;;;9.30;2.70;;;14.00;99.90;;;;;;4861418;29;20046;-87
2021/10/27 04:17:32;;;;;;;5.65;2.47;;;14.00;99.90;;;;;;4860386;29;20049;-87
2021/10/27 04:19:59;;;;;;;9.52;2.90;;;14.00;99.90;;;;;;4846804;29;20052;-87
2021/10/27 04:22:27;;;;;;;11.38;2.70;;;14.00;99.90;;;;;;4862112;29;20037;-86
2021/10/27 04:24:53;;;;;;;8.55;2.70;;;14.00;99.90;;;;;;4835168;29;20469;-76
2021/10/27 04:27:20;;;;;;;5.60;2.15;;;14.00;99.90;;;;;;4846209;29;20064;-76
2021/10/27 04:29:47;;;;;;;6.80;1.90;;;14.00;99.90;;;;;;4861124;29;20025;-77
2021/10/27 04:32:13;;;;;;;9.20;2.75;;;14.00;99.90;;;;;;4861063;29;20061;-77
2021/10/27 04:34:40;;;;;;;9.73;3.22;;;14.00;99.90;;;;;;4858423;29;20409;-77
2021/10/27 04:37:11;;;;;;;8.93;2.75;;;14.00;99.90;;;;;;4829620;29;20714;-77
2021/10/27 04:39:37;;;;;;;7.57;2.38;;;14.00;99.90;;;;;;4858299;29;20049;-77
2021/10/27 04:42:04;;;;;;;6.47;2.63;;;14.00;99.90;;;;;;4844385;29;20076;-77
2021/10/27 04:44:30;;;;;;;8.48;2.58;;;14.00;99.90;;;;;;4841513;29;20053;-77
2021/10/27 04:47:01;;;;;;;6.15;2.83;;;14.00;99.90;;;;;;4861062;29;20037;-77
2021/10/27 04:49:27;;;;;;;6.45;2.97;;;14.00;99.90;;;;;;4856929;29;20045;-77
2021/10/27 04:51:54;;;;;;;5.60;2.50;;;14.00;99.90;;;;;;4861788;29;20045;-77
2021/10/27 04:54:20;;;;;;;7.47;1.92;;;14.10;99.90;;;;;;4849513;29;20643;-76
2021/10/27 04:56:47;;;;;;;7.60;2.15;;;14.10;99.90;;;;;;4846680;29;20056;-80
2021/10/27 04:59:14;;;;;;;6.97;1.92;;;14.00;99.90;;;;;;4857891;29;20453;-77
2021/10/27 05:01:43;;;;;;;11.25;2.70;;;14.10;99.90;;;;;;4845127;29;20041;-80
2021/10/27 05:04:10;;;;;;;8.38;2.22;;;14.10;99.90;;;;;;4842841;29;20041;-75
2021/10/27 05:06:36;;;;;;;9.65;3.10;;;14.10;99.90;;;;;;4856428;29;20072;-76
2021/10/27 05:09:03;;;;;;;7.72;3.22;;;14.10;99.90;;;;;;4857114;29;20037;-77
2021/10/27 05:11:29;;;;;;;10.07;4.70;;;14.10;99.90;;;;;;4846357;29;20041;-76
2021/10/27 05:13:56;;;;;;;7.35;3.42;;;14.10;99.90;;;;;;4834246;29;20405;-76
2021/10/27 05:16:24;;;;;;;10.80;4.20;;;14.10;99.90;;;;;;4854590;29;20060;-80
2021/10/27 05:18:51;;;;;;;10.82;3.15;;;14.10;99.90;;;;;;4844215;29;20053;-78
2021/10/27 05:21:17;;;;;;;9.43;3.00;;;14.10;99.90;;;;;;4825323;29;20496;-81
2021/10/27 05:23:44;;;;;;;9.43;2.30;;;14.00;99.90;;;;;;4826236;29;20061;-78
2021/10/27 05:26:10;;;;;;;8.02;1.98;;;14.00;99.90;;;;;;4829702;29;20065;-77
2021/10/27 05:28:37;;;;;;;7.45;2.17;;;14.00;99.90;;;;;;4854777;29;20045;-77
2021/10/27 05:31:04;;;;;;;6.28;2.38;;;14.10;99.90;;;;;;4856784;29;20046;-81
2021/10/27 05:33:30;;;;;;;6.78;2.65;;;14.00;99.90;;;;;;4856520;29;20386;-78
2021/10/27 05:35:57;;;;;;;8.48;2.92;;;14.10;99.90;;;;;;4818268;29;20041;-79
2021/10/27 05:38:23;;;;;;;13.25;5.05;;;14.10;99.90;;;;;;4846617;29;20048;-78
2021/10/27 05:40:50;;;;;;;10.13;3.88;;;14.00;99.90;;;;;;4860942;29;20040;-78
2021/10/27 05:43:17;;;;;;;9.27;3.20;;;14.00;99.90;;;;;;4841188;29;20053;-78
2021/10/27 05:45:43;;;;;;;9.85;2.60;;;14.00;99.90;;;;;;4827345;29;20262;-79
2021/10/27 05:48:12;;;;;;;11.25;2.30;;;14.00;99.90;;;;;;4855579;29;20056;-77
2021/10/27 05:50:42;;;;;;;4.95;2.10;;;14.00;99.90;;;;;;4855033;29;20135;-79
2021/10/27 05:55:53;;;;;;;8.20;3.53;;;14.00;99.90;;;;;;4855233;29;20497;-79
2021/10/27 05:58:21;;;;;;;4.30;2.00;;;14.00;99.90;;;;;;4811603;29;20041;-77
2021/10/27 06:00:49;;;;;;;8.40;2.50;;;14.00;99.90;;;;;;4838547;29;20037;-80
2021/10/27 06:03:15;;;;;;;10.00;2.80;;;14.00;99.90;;;;;;4854535;29;20033;-78
2021/10/27 06:05:42;;;;;;;7.82;3.47;;;14.00;99.90;;;;;;4826422;29;20053;-77
2021/10/27 06:08:08;;;;;;;8.80;3.25;;;14.00;99.90;;;;;;4854354;29;20527;-79
2021/10/27 06:10:35;;;;;;;7.45;2.33;;;14.00;99.90;;;;;;4846145;29;20050;-78
2021/10/27 06:13:06;;;;;;;4.70;2.00;;;14.00;99.90;;;;;;4825340;29;20127;-78
2021/10/27 06:15:33;;;;;;;8.05;2.20;;;14.00;99.90;;;;;;4863193;29;20397;-78
2021/10/27 06:18:01;;;;;;;7.18;3.10;;;14.00;99.90;;;;;;4866338;29;20044;-78
2021/10/27 06:20:29;;;;;;;9.98;2.88;;;14.00;99.90;;;;;;4858245;29;20058;-78
2021/10/27 06:22:57;;;;;;;7.88;2.28;;;14.00;99.90;;;;;;4832550;29;20053;-78
2021/10/27 06:25:25;;;;;;;8.35;3.15;;;14.00;99.90;;;;;;4818911;29;20048;-78
2021/10/27 06:28:00;;;;;;;6.22;2.97;;;14.00;99.90;;;;;;4833452;29;20472;-78
2021/10/27 06:33:27;;;;;;;6.93;3.58;;;14.00;99.90;;;;;;4857156;29;20029;-78
2021/10/27 06:36:12;;;;;;;8.77;3.97;;;14.00;99.90;;;;;;4854980;29;20054;-78
2021/10/27 06:46:47;;;;;;;8.38;2.08;;;14.00;99.90;;;;;;4855946;29;20052;-86
2021/10/27 06:49:14;;;;;;;8.68;2.90;;;14.00;99.90;;;;;;4842164;29;20045;-83
2021/10/27 06:51:41;;;;;;;7.20;3.25;;;14.00;99.90;;;;;;4841567;29;20064;-86
2021/10/27 06:54:09;;;;;;;9.25;3.42;;;14.00;99.90;;;;;;4804274;29;20046;-85
2021/10/27 06:56:36;;;;;;;7.68;3.55;;;14.00;99.90;;;;;;4807197;29;20057;-82
2021/10/27 06:59:15;;;;;;;7.55;3.50;;;14.00;99.90;;;;;;4837177;29;20495;-84
2021/10/27 07:15:22;;;;;;;8.90;3.38;;;14.00;99.90;;;;;;4844765;29;20037;-85
2021/10/27 07:17:55;;;;;;;6.15;3.03;;;14.00;99.90;;;;;;4854306;29;20481;-86
2021/10/27 07:20:26;;;;;;;9.43;4.05;;;14.00;99.90;;;;;;4839419;29;20041;-83
2021/10/27 07:22:55;;;;;;;8.02;4.35;;;14.10;99.90;;;;;;4852349;29;20045;-79
2021/10/27 07:25:32;;;;;;;9.10;4.25;;;14.10;99.90;;;;;;4859060;29;20034;-82
2021/10/27 07:27:59;;;;;;;8.45;3.67;;;14.10;99.90;;;;;;4838841;29;20056;-82
2021/10/27 07:30:26;;;;;;;11.20;5.30;;;14.10;99.90;;;;;;4850303;29;20033;-77
2021/10/27 07:32:55;;;;;;;13.73;4.88;;;14.10;99.90;;;;;;4836346;29;20033;-76
2021/10/27 07:36:27;;;;;;;12.25;4.82;;;14.10;99.90;;;;;;4839605;29;20408;-77
2021/10/27 07:41:38;;;;;;;8.55;3.83;;;14.10;99.90;;;;;;4854809;29;20008;-76
2021/10/27 07:44:14;;;;;;;16.45;5.15;;;14.20;99.90;;;;;;4840368;29;20492;-77
2021/10/27 07:46:44;;;;;;;8.70;4.07;;;14.20;99.90;;;;;;4856854;29;20037;-77
2021/10/27 07:49:11;;;;;;;7.30;4.22;;;14.20;99.90;;;;;;4811605;29;20052;-76
2021/10/27 07:51:37;;;;;;;10.52;5.30;;;14.20;99.90;;;;;;4863705;29;20058;-77
2021/10/27 07:54:07;;;;;;;9.52;5.07;;;14.30;99.90;;;;;;4841145;29;20041;-77
2021/10/27 07:56:35;;;;;;;8.82;4.68;;;14.30;99.90;;;;;;4844839;29;20053;-77
2021/10/27 07:59:02;;;;;;;7.82;4.25;;;14.30;99.90;;;;;;4845353;29;20041;-77
2021/10/27 08:01:31;;;;;;;7.05;4.10;;;14.40;99.90;;;;;;4863583;29;20049;-76
2021/10/27 08:03:58;;;;;;;10.10;4.30;;;14.30;99.90;;;;;;4861262;29;20029;-78
2021/10/27 08:06:25;;;;;;;13.43;5.05;;;14.40;99.90;;;;;;4856686;29;20045;-78
2021/10/27 08:08:52;;;;;;;11.93;4.78;;;14.40;99.90;;;;;;4865433;29;20389;-77
2021/10/27 08:11:18;;;;;;;13.85;5.05;;;14.40;99.90;;;;;;4864115;29;20044;-77
2021/10/27 08:13:46;;;;;;;13.68;5.50;;;14.40;99.90;;;;;;4863848;29;20111;-77
2021/10/27 08:16:13;;;;;;;9.68;4.97;;;14.50;99.90;;;;;;4833185;29;20057;-77
2021/10/27 08:18:39;;;;;;;11.90;4.50;;;14.50;99.90;;;;;;4865160;29;20060;-77
2021/10/27 08:21:07;;;;;;;10.13;5.03;;;14.50;99.90;;;;;;4842899;29;20385;-77
2021/10/27 08:23:38;;;;;;;10.23;4.75;;;14.60;99.90;;;;;;4859924;29;20048;-77
2021/10/27 08:26:10;;;;;;;12.00;4.57;;;14.70;99.90;;;;;;4861361;29;20046;-76
2021/10/27 08:28:49;;;;;;;10.32;4.53;;;14.90;99.90;;;;;;4865705;29;20037;-77
2021/10/27 08:36:25;;;;;;;10.05;4.65;;;15.20;99.90;;;;;;4839825;29;20401;-77
2021/10/27 08:38:52;;;;;;;8.20;5.20;;;15.20;99.90;;;;;;4840455;29;20053;-77
2021/10/27 08:41:19;;;;;;;9.45;4.90;;;15.20;99.90;;;;;;4839819;29;20464;-76
2021/10/27 08:43:46;;;;;;;10.52;5.47;;;15.10;99.90;;;;;;4857977;29;20045;-77
2021/10/27 08:46:16;;;;;;;9.65;5.50;;;15.10;99.90;;;;;;4858482;29;20041;-76
2021/10/27 08:48:49;;;;;;;12.15;5.93;;;15.00;99.90;;;;;;4825991;29;20512;-77
2021/10/27 08:51:17;;;;;;;9.90;4.97;;;15.00;99.90;;;;;;4859750;29;20498;-77
2021/10/27 08:53:44;;;;;;;11.70;5.32;;;15.00;99.90;;;;;;4817090;29;20470;-77
2021/10/27 08:56:11;;;;;;;8.38;4.65;;;15.00;99.90;;;;;;4845919;29;20545;-77
2021/10/27 08:58:43;;;;;;;12.98;5.88;;;15.00;99.90;;;;;;4858671;29;20060;-76
2021/10/27 09:01:26;;;;;;;9.73;5.97;;;15.00;99.90;;;;;;4855003;29;20044;-78
2021/10/27 09:06:43;;;;;;;15.43;7.07;;;14.90;99.90;;;;;;4852673;29;20045;-76
2021/10/27 09:09:31;;;;;;;11.15;6.50;;;14.90;99.90;;;;;;4841001;29;20045;-77
2021/10/27 09:35:54;;;;;;;9.63;4.82;;;15.50;99.90;;;;;;4860341;29;20042;-77
2021/10/27 10:05:16;;;;;;;8.20;4.85;;;17.00;99.90;;;;;;4858366;29;20041;-76
2021/10/27 10:07:44;;;;;;;9.48;5.68;;;17.20;99.90;;;;;;4856389;29;20049;-77
2021/10/27 10:10:12;;;;;;;5.72;3.80;;;17.30;99.90;;;;;;4857472;29;20048;-77
2021/10/27 10:12:46;;;;;;;8.95;4.60;;;17.60;99.90;;;;;;4856466;29;20503;-77
2021/10/27 10:15:13;;;;;;;7.82;3.92;;;17.90;99.90;;;;;;4861066;29;20045;-77
2021/10/27 10:17:41;;;;;;;9.35;3.95;;;18.10;99.90;;;;;;4855460;29;20044;-78
2021/10/27 10:20:10;;;;;;;9.05;4.13;;;18.30;99.90;;;;;;4852801;29;20045;-77
2021/10/27 10:22:39;;;;;;;7.70;3.25;;;18.50;99.90;;;;;;4859954;29;20061;-77
2021/10/27 10:25:18;;;;;;;9.35;3.63;;;18.80;99.90;;;;;;4855402;29;20038;-77
2021/10/27 10:27:48;;;;;;;4.85;3.30;;;19.00;99.90;;;;;;4846482;29;20379;-77
2021/10/27 10:30:51;;;;;;;5.75;3.20;;;19.10;99.90;;;;;;4837944;29;20041;-77
2021/10/27 10:33:18;;;;;;;8.27;3.72;;;19.20;99.90;;;;;;4855508;29;20070;-77
2021/10/27 10:42:44;;;;;;;6.22;2.88;;;19.40;99.90;;;;;;4852083;29;20053;-77
2021/10/27 11:24:57;;;;;;;5.72;2.28;;;18.60;99.90;;;;;;4848992;29;20076;-77
2021/10/27 11:41:49;;;;;;;5.97;3.25;;;17.80;99.90;;;;;;4855621;29;20053;-77
2021/10/27 11:45:21;;;;;;;3.05;2.08;;;17.70;99.90;;;;;;4857155;29;20051;-77
2021/10/27 11:47:43;;;;;;;3.72;2.08;;;17.60;99.90;;;;;;4841901;29;20068;-77
2021/10/27 11:50:14;;;;;;;4.88;2.28;;;17.60;99.90;;;;;;4856142;29;20048;-77
2021/10/27 11:52:45;;;;;;;4.63;3.00;;;17.50;99.90;;;;;;4857222;29;20509;-77
2021/10/27 11:55:14;;;;;;;5.68;3.03;;;17.50;99.90;;;;;;4862388;29;20052;-76
2021/10/27 11:57:42;;;;;;;6.95;2.63;;;17.50;99.90;;;;;;4856918;29;20049;-77
2021/10/27 12:00:26;;;;;;;6.32;2.88;;;17.50;99.90;;;;;;4856501;29;20033;-77
2021/10/27 12:03:07;;;;;;;6.38;2.45;;;17.50;99.90;;;;;;4857518;29;20044;-76
2021/10/27 12:05:47;;;;;;;4.72;1.83;;;17.40;99.90;;;;;;4857510;29;20041;-77
2021/10/27 12:14:10;;;;;;;5.63;3.42;;;17.50;99.90;;;;;;4842855;29;20045;-77
2021/10/27 12:19:05;;;;;;;5.60;3.08;;;17.50;99.90;;;;;;4838688;29;20060;-77
2021/10/27 12:21:32;;;;;;;6.35;2.90;;;17.50;99.90;;;;;;4856841;29;20034;-80
2021/10/27 12:24:01;;;;;;;6.72;4.43;;;17.50;99.90;;;;;;4859008;29;20507;-77
2021/10/27 12:26:43;;;;;;;8.63;4.72;;;17.60;99.90;;;;;;4856470;29;20042;-77
2021/10/27 12:29:23;;;;;;;6.00;3.58;;;17.70;99.90;;;;;;4855961;29;20037;-77
2021/10/27 12:32:15;;;;;;;6.05;3.00;;;17.80;99.90;;;;;;4855627;29;20693;-77
2021/10/27 12:34:47;;;;;;;6.15;3.10;;;17.90;99.90;;;;;;4855354;29;20041;-79
2021/10/27 12:40:28;;;;;;;5.15;3.00;;;18.00;99.90;;;;;;4855914;29;20130;-77
2021/10/27 12:43:06;;;;;;;4.47;2.45;;;18.00;99.90;;;;;;4837343;29;20585;-77
2021/10/27 12:45:42;;;;;;;5.47;3.05;;;17.90;99.90;;;;;;4852259;29;20034;-76
2021/10/27 12:48:13;;;;;;;6.20;3.53;;;17.90;99.90;;;;;;4839088;29;20583;-76
2021/10/27 12:50:58;;;;;;;5.88;2.85;;;17.90;99.90;;;;;;4854652;29;20414;-86
2021/10/27 12:53:39;;;;;;;5.63;3.05;;;17.80;99.90;;;;;;4856880;29;20361;-85
2021/10/27 12:56:17;;;;;;;5.13;2.20;;;17.80;99.90;;;;;;4839802;29;20379;-84
2021/10/27 12:58:52;;;;;;;4.97;1.63;;;17.80;99.90;;;;;;4856117;29;20492;-85
2021/10/27 13:01:33;;;;;;;8.90;3.20;;;17.80;99.90;;;;;;4854852;29;20129;-85
2021/10/27 13:20:34;;;;;;;6.47;3.38;;;17.90;99.90;;;;;;4864336;29;20370;-84
2021/10/27 13:31:13;;;;;;;6.68;4.88;;;17.90;99.90;;;;;;4857293;29;20052;-84
2021/10/27 13:33:40;;;;;;;5.03;3.70;;;17.90;99.90;;;;;;4858373;29;20041;-85
2021/10/27 13:36:07;;;;;;;4.45;3.30;;;18.00;99.90;;;;;;4858042;29;20481;-85
2021/10/27 13:38:36;;;;;;;5.20;3.22;;;17.90;99.90;;;;;;4856233;29;20041;-85
2021/10/27 13:41:05;;;;;;;6.53;3.38;;;17.80;99.90;;;;;;4841560;29;20405;-84
2021/10/27 13:46:21;;;;;;;10.75;4.10;;;17.60;99.90;;;;;;4857697;29;20041;-84
2021/10/27 14:08:16;;;;;;;5.35;2.45;;;17.30;99.90;;;;;;4854521;29;20056;-84
2021/10/27 14:40:32;;;;;;;7.93;3.40;;;16.60;99.90;;;;;;4850077;29;20044;-83
2021/10/27 14:51:24;;;;;;;8.73;3.40;;;16.30;99.90;;;;;;4858764;29;20053;-85
2021/10/27 15:15:35;;;;;;;6.53;2.58;;;16.10;99.90;;;;;;4860453;29;20397;-77
2021/10/27 15:21:24;;;;;;;6.32;2.88;;;15.60;99.90;;;;;;4841123;29;20449;-77
2021/10/27 15:29:21;;;;;;;6.75;2.33;;;15.40;99.90;;;;;;4864111;29;20040;-76
2021/10/27 15:37:20;;;;;;;4.82;2.20;;;15.30;99.90;;;;;;4856622;29;20040;-76
2021/10/27 15:45:37;;;;;;;6.13;1.88;;;15.00;99.90;;;;;;4844650;29;20049;-79
2021/10/27 15:51:01;;;;;;;4.05;2.15;;;14.90;99.90;;;;;;4843498;29;20595;-77
2021/10/27 15:53:27;;;;;;;6.82;2.05;;;14.80;99.90;;;;;;4857681;29;20060;-77
2021/10/27 15:55:57;;;;;;;8.57;2.00;;;14.80;99.90;;;;;;4825783;29;20041;-77
2021/10/27 15:58:23;;;;;;;7.75;1.92;;;14.70;99.90;;;;;;4857382;29;20425;-77
2021/10/27 16:00:50;;;;;;;5.88;1.80;;;14.70;99.90;;;;;;4855758;29;20041;-77
2021/10/27 16:03:17;;;;;;;6.68;2.10;;;14.60;99.90;;;;;;4855888;29;20041;-77
2021/10/27 16:05:46;;;;;;;5.80;1.88;;;14.50;99.90;;;;;;4856365;29;20318;-85
2021/10/27 16:08:15;;;;;;;11.68;6.53;;;14.50;99.90;;;;;;4843556;29;20056;-84
2021/10/27 16:10:43;;;;;;;6.70;3.05;;;14.40;99.90;;;;;;4860884;29;20057;-83
2021/10/27 16:13:10;;;;;;;4.88;2.53;;;14.40;99.90;;;;;;4861435;29;20048;-84
2021/10/27 16:15:38;;;;;;;8.30;3.85;;;14.30;99.90;;;;;;4863489;29;20381;-85
2021/10/27 16:18:08;;;;;;;5.05;2.85;;;14.30;99.90;;;;;;4857470;29;20060;-85
2021/10/27 16:20:36;;;;;;;5.00;2.53;;;14.20;99.90;;;;;;4857889;29;20691;-84
2021/10/27 16:23:04;;;;;;;7.72;2.30;;;14.10;99.90;;;;;;4861702;29;20034;-83
2021/10/27 16:25:31;;;;;;;4.28;2.15;;;14.10;99.90;;;;;;4860569;29;20052;-84
2021/10/27 16:27:58;;;;;;;6.30;4.05;;;14.00;99.90;;;;;;4860720;29;20045;-83
2021/10/27 16:30:27;;;;;;;8.55;5.03;;;14.00;99.90;;;;;;4859287;29;20053;-83
2021/10/27 16:32:53;;;;;;;8.93;3.28;;;13.90;99.90;;;;;;4846439;29;20141;-84
2021/10/27 16:35:21;;;;;;;4.80;2.22;;;13.80;99.90;;;;;;4844180;29;20038;-84
2021/10/27 16:37:49;;;;;;;4.45;2.20;;;13.80;99.90;;;;;;4859993;29;20041;-84
2021/10/27 16:40:16;;;;;;;6.80;2.13;;;13.70;99.90;;;;;;4862071;29;20147;-86
2021/10/27 16:42:42;;;;;;;3.45;1.67;;;13.70;99.90;;;;;;4858804;29;20048;-85
2021/10/27 16:45:11;;;;;;;6.07;1.70;;;13.70;99.90;;;;;;4847568;29;20050;-85
2021/10/27 16:51:20;;;;;;;9.07;2.15;;;13.60;99.90;;;;;;4872685;29;20041;-76
2021/10/27 16:53:47;;;;;;;4.43;1.92;;;13.50;99.90;;;;;;4865339;29;20053;-76
2021/10/27 16:56:14;;;;;;;5.10;1.50;;;13.50;99.90;;;;;;4859812;29;20044;-76
2021/10/27 16:58:41;;;;;;;4.57;1.95;;;13.40;99.90;;;;;;4858789;29;20045;-78
2021/10/27 17:01:07;;;;;;;5.43;2.22;;;13.40;99.90;;;;;;4842003;29;20408;-78
2021/10/27 17:03:48;;;;;;;5.07;2.33;;;13.30;99.90;;;;;;4858769;29;20556;-82
2021/10/27 17:06:14;;;;;;;5.47;2.65;;;13.30;99.90;;;;;;4828489;29;20029;-78
2021/10/27 17:08:42;;;;;;;5.95;1.92;;;13.30;99.90;;;;;;4861176;29;20567;-78
2021/10/27 17:11:09;;;;;;;7.03;3.97;;;13.30;99.90;;;;;;4855505;29;20043;-79
2021/10/27 17:13:36;;;;;;;5.40;3.42;;;13.20;99.90;;;;;;4842285;29;20033;-78
2021/10/27 17:16:03;;;;;;;9.27;4.70;;;13.20;99.90;;;;;;4856520;29;20029;-77
2021/10/27 17:18:32;;;;;;;7.55;5.00;;;13.20;99.90;;;;;;4859907;29;20041;-78
2021/10/27 17:20:59;;;;;;;8.25;3.60;;;13.20;99.90;;;;;;4837326;29;20167;-79
2021/10/27 17:23:31;;;;;;;6.32;2.22;;;13.20;99.90;;;;;;4855733;29;20873;-77
2021/10/27 17:25:59;;;;;;;5.17;2.53;;;13.20;99.90;;;;;;4839560;29;20042;-77
2021/10/27 17:28:31;;;;;;;6.90;2.58;;;13.20;99.90;;;;;;4838850;29;20551;-82
2021/10/27 17:31:00;;;;;;;3.10;1.95;;;13.10;99.90;;;;;;4825692;29;20037;-78
2021/10/27 17:33:27;;;;;;;4.65;1.92;;;13.10;99.90;;;;;;4820930;29;20044;-86
2021/10/27 17:35:59;;;;;;;5.07;1.80;;;13.10;99.90;;;;;;4839885;29;20378;-85
2021/10/27 17:38:27;;;;;;;5.53;1.83;;;13.00;99.90;;;;;;4855817;29;20882;-85
2021/10/27 17:40:53;;;;;;;3.95;1.50;;;13.00;99.90;;;;;;4838938;29;20041;-87
2021/10/27 17:43:20;;;;;;;5.60;2.17;;;12.90;99.90;;;;;;4838618;29;20045;-86
2021/10/27 17:45:46;;;;;;;3.50;1.88;;;12.90;99.90;;;;;;4838721;29;20421;-87
2021/10/27 17:48:19;;;;;;;4.47;1.60;;;12.80;99.90;;;;;;4854573;29;20061;-85